Time;durP1;ratioP1;P1;durP2;ratioP2;P2;SDS_P1;SDS_P2;PMS_P1;PMS_P2;Temp;Humidity;BMP_temperature;BMP_pressure;BME280_temperature;BME280_humidity;BME280_pressure;Samples;Min_cycle;Max_cycle;Signal;HPM_P1;HPM_P2
2020/12/01 00:01:53;;;;;;;17.33;13.70;;;0.80;99.10;;;;;;6287340;28;20466;-62
2020/12/01 00:04:55;;;;;;;21.33;14.90;;;0.70;99.00;;;;;;6300259;28;20476;-63
2020/12/01 00:07:57;;;;;;;19.27;14.50;;;0.70;99.10;;;;;;6300127;28;20991;-67
2020/12/01 00:10:59;;;;;;;21.37;14.57;;;0.60;99.10;;;;;;6294333;28;20479;-62
2020/12/01 00:14:03;;;;;;;22.70;14.50;;;0.60;99.20;;;;;;6282363;28;20996;-62
2020/12/01 00:17:05;;;;;;;20.03;14.37;;;0.60;99.40;;;;;;6300445;28;20481;-62
2020/12/01 00:20:09;;;;;;;21.87;14.57;;;0.50;99.40;;;;;;6300426;28;20469;-62
2020/12/01 00:23:11;;;;;;;19.60;15.97;;;0.60;99.50;;;;;;6299970;28;20469;-62
2020/12/01 00:26:15;;;;;;;21.63;14.40;;;0.60;99.70;;;;;;6300252;28;20473;-63
2020/12/01 00:29:18;;;;;;;19.03;14.10;;;0.50;99.30;;;;;;6299846;28;20812;-62
2020/12/01 00:32:21;;;;;;;18.57;14.30;;;0.60;99.30;;;;;;6300158;28;20485;-62
2020/12/01 00:35:25;;;;;;;20.60;17.60;;;0.60;99.30;;;;;;6296886;28;20473;-62
2020/12/01 00:38:27;;;;;;;23.07;15.57;;;0.50;99.30;;;;;;6299667;28;20466;-62
2020/12/01 00:41:30;;;;;;;19.27;14.97;;;0.50;99.40;;;;;;6299382;28;20465;-62
2020/12/01 00:44:33;;;;;;;22.90;15.87;;;0.40;99.30;;;;;;6299601;28;20475;-62
2020/12/01 00:47:35;;;;;;;22.40;16.37;;;0.40;99.30;;;;;;6299687;28;20474;-62
2020/12/01 00:50:37;;;;;;;23.00;15.07;;;0.40;99.30;;;;;;6299617;28;20480;-61
2020/12/01 00:53:40;;;;;;;22.50;16.37;;;0.30;99.30;;;;;;6270143;28;20966;-62
2020/12/01 00:56:44;;;;;;;25.50;15.67;;;0.40;99.30;;;;;;6282846;28;20473;-67
2020/12/01 00:59:47;;;;;;;23.30;16.50;;;0.30;99.30;;;;;;6299459;28;20807;-62
2020/12/01 01:02:49;;;;;;;23.23;15.00;;;0.30;99.30;;;;;;6297590;28;20473;-62
2020/12/01 01:05:52;;;;;;;23.80;14.97;;;0.30;99.30;;;;;;6297197;28;20474;-63
2020/12/01 01:08:54;;;;;;;20.20;15.30;;;0.30;99.30;;;;;;6279594;28;20473;-64
2020/12/01 01:11:56;;;;;;;24.83;15.37;;;0.30;99.30;;;;;;6274934;28;20486;-63
2020/12/01 01:14:59;;;;;;;21.70;15.33;;;0.30;99.20;;;;;;6272330;28;20848;-63
2020/12/01 01:18:03;;;;;;;25.70;16.50;;;0.30;99.10;;;;;;6273732;28;20489;-64
2020/12/01 01:21:06;;;;;;;21.43;15.50;;;0.30;99.00;;;;;;6274237;28;20481;-64
2020/12/01 01:24:09;;;;;;;19.70;16.10;;;0.30;98.90;;;;;;6275258;28;20462;-64
2020/12/01 01:27:11;;;;;;;21.90;15.57;;;0.30;98.90;;;;;;6292692;28;20484;-62
2020/12/01 01:30:15;;;;;;;18.77;14.47;;;0.30;98.90;;;;;;6290279;28;20465;-63
2020/12/01 01:33:17;;;;;;;20.67;15.17;;;0.20;98.90;;;;;;6285110;28;20470;-64
2020/12/01 01:36:20;;;;;;;19.33;14.77;;;0.20;98.90;;;;;;6275964;28;20550;-63
2020/12/01 01:39:22;;;;;;;22.87;16.70;;;0.20;99.10;;;;;;6286835;28;20795;-64
2020/12/01 01:42:24;;;;;;;23.30;15.93;;;0.20;99.10;;;;;;6281988;28;20765;-63
2020/12/01 01:45:37;;;;;;;22.50;15.30;;;0.10;99.10;;;;;;6286954;28;20467;-64
2020/12/01 01:48:44;;;;;;;22.50;14.70;;;0.20;99.10;;;;;;6294683;28;20469;-63
2020/12/01 01:51:53;;;;;;;24.50;15.10;;;0.10;99.00;;;;;;6298954;28;20469;-63
2020/12/01 01:55:02;;;;;;;24.03;15.67;;;0.10;99.10;;;;;;6302280;28;20984;-63
2020/12/01 01:58:05;;;;;;;20.93;13.73;;;0.10;99.10;;;;;;6303718;28;20496;-63
2020/12/01 02:01:13;;;;;;;21.57;15.23;;;0.10;99.10;;;;;;6303333;28;20457;-64
2020/12/01 02:04:15;;;;;;;17.87;13.80;;;0.10;99.10;;;;;;6303852;28;20417;-64
2020/12/01 02:07:20;;;;;;;25.23;16.00;;;0.10;99.10;;;;;;6304032;28;20460;-63
2020/12/01 02:10:23;;;;;;;19.93;15.80;;;0.00;99.00;;;;;;6303282;28;20806;-64
2020/12/01 02:13:40;;;;;;;22.20;14.77;;;0.00;99.00;;;;;;6303505;28;20476;-64
2020/12/01 02:16:45;;;;;;;19.07;13.70;;;0.00;99.10;;;;;;6303729;28;20480;-64
2020/12/01 02:19:51;;;;;;;19.87;13.63;;;-0.10;99.00;;;;;;6303571;28;20484;-64
2020/12/01 02:22:55;;;;;;;16.73;13.37;;;0.00;99.10;;;;;;6303362;28;20472;-63
2020/12/01 02:26:02;;;;;;;17.17;14.00;;;-0.10;99.00;;;;;;6303424;28;20809;-64
2020/12/01 02:29:09;;;;;;;19.00;13.27;;;-0.10;99.10;;;;;;6303128;28;20473;-64
2020/12/01 02:32:13;;;;;;;19.83;13.90;;;-0.10;99.00;;;;;;6303403;28;20473;-64
2020/12/01 02:35:15;;;;;;;18.90;13.37;;;-0.20;99.10;;;;;;6279510;28;20493;-64
2020/12/01 02:38:18;;;;;;;21.70;15.30;;;-0.10;99.20;;;;;;6278349;28;20470;-64
2020/12/01 02:41:20;;;;;;;20.03;14.00;;;-0.10;99.20;;;;;;6277607;28;20810;-64
2020/12/01 02:44:24;;;;;;;20.47;14.03;;;-0.20;99.00;;;;;;6278282;28;20474;-64
2020/12/01 02:47:27;;;;;;;22.17;13.73;;;-0.20;99.00;;;;;;6277973;28;20470;-64
2020/12/01 02:50:29;;;;;;;23.63;14.47;;;-0.20;99.10;;;;;;6278208;28;20466;-64
2020/12/01 02:53:39;;;;;;;21.10;14.60;;;-0.20;99.10;;;;;;6277697;28;20482;-64
2020/12/01 02:56:45;;;;;;;18.27;13.93;;;-0.30;99.00;;;;;;6286107;28;20961;-64
2020/12/01 02:59:48;;;;;;;21.23;13.53;;;-0.20;99.20;;;;;;6290351;28;20477;-64
2020/12/01 03:02:50;;;;;;;17.47;13.37;;;-0.30;99.20;;;;;;6283684;28;20467;-64
2020/12/01 03:05:52;;;;;;;20.47;14.77;;;-0.30;99.20;;;;;;6289366;28;20469;-63
2020/12/01 03:08:55;;;;;;;17.03;12.73;;;-0.30;99.20;;;;;;6291519;28;20984;-63
2020/12/01 03:11:57;;;;;;;19.43;13.60;;;-0.40;99.10;;;;;;6301748;28;20807;-64
2020/12/01 03:15:01;;;;;;;16.17;12.47;;;-0.40;99.10;;;;;;6302358;28;20492;-63
2020/12/01 03:18:03;;;;;;;15.13;11.87;;;-0.40;99.20;;;;;;6298743;28;20466;-63
2020/12/01 03:21:06;;;;;;;17.80;13.23;;;-0.40;99.20;;;;;;6288234;28;20468;-63
2020/12/01 03:24:12;;;;;;;19.27;14.70;;;-0.40;99.20;;;;;;6289136;28;20461;-63
2020/12/01 03:27:14;;;;;;;19.17;12.90;;;-0.40;99.20;;;;;;6289124;28;20471;-63
2020/12/01 03:30:17;;;;;;;21.30;13.37;;;-0.40;99.10;;;;;;6287854;28;20480;-63
2020/12/01 03:33:20;;;;;;;22.93;15.10;;;-0.40;99.10;;;;;;6288644;28;20477;-63
2020/12/01 03:36:23;;;;;;;19.43;13.83;;;-0.50;99.00;;;;;;6288596;28;20608;-63
2020/12/01 03:39:25;;;;;;;18.47;13.17;;;-0.50;99.00;;;;;;6276784;28;20462;-63
2020/12/01 03:42:27;;;;;;;21.73;13.50;;;-0.50;99.10;;;;;;6276282;28;20963;-63
2020/12/01 03:45:30;;;;;;;24.90;13.57;;;-0.50;99.10;;;;;;6276431;28;20469;-63
2020/12/01 03:48:33;;;;;;;22.00;12.77;;;-0.60;99.00;;;;;;6276210;28;20498;-63
2020/12/01 03:51:35;;;;;;;19.67;13.10;;;-0.70;99.20;;;;;;6276271;28;20485;-63
2020/12/01 03:54:38;;;;;;;17.87;12.77;;;-0.60;99.40;;;;;;6276209;28;20482;-63
2020/12/01 03:57:41;;;;;;;21.67;13.23;;;-0.60;99.30;;;;;;6276022;28;20500;-63
2020/12/01 04:00:45;;;;;;;22.50;14.00;;;-0.60;99.30;;;;;;6275854;28;20563;-63
2020/12/01 04:03:47;;;;;;;18.83;12.40;;;-0.70;99.30;;;;;;6275898;28;20475;-63
2020/12/01 04:06:49;;;;;;;18.77;13.33;;;-0.70;99.40;;;;;;6275784;28;20474;-63
2020/12/01 04:09:51;;;;;;;15.87;12.37;;;-0.70;99.50;;;;;;6266561;28;20508;-63
2020/12/01 04:12:55;;;;;;;16.60;13.57;;;-0.70;99.60;;;;;;6275602;28;20479;-63
2020/12/01 04:15:58;;;;;;;20.70;14.70;;;-0.70;99.60;;;;;;6275460;28;20483;-63
2020/12/01 04:19:00;;;;;;;17.93;13.03;;;-0.80;99.50;;;;;;6275964;28;20495;-63
2020/12/01 04:22:03;;;;;;;18.07;12.90;;;-0.70;99.50;;;;;;6275398;28;20811;-63
2020/12/01 04:25:08;;;;;;;17.03;12.93;;;-0.70;99.40;;;;;;6275498;28;20958;-64
2020/12/01 04:28:10;;;;;;;19.97;14.53;;;-0.70;99.40;;;;;;6275579;28;20446;-63
2020/12/01 04:31:14;;;;;;;19.17;14.40;;;-0.70;99.30;;;;;;6275211;28;20454;-63
2020/12/01 04:34:16;;;;;;;19.30;13.83;;;-0.80;99.30;;;;;;6275035;28;20810;-63
2020/12/01 04:37:18;;;;;;;19.93;13.40;;;-0.80;99.30;;;;;;6275549;28;20438;-63
2020/12/01 04:40:23;;;;;;;22.70;14.50;;;-0.80;99.30;;;;;;6275486;28;20521;-63
2020/12/01 04:43:32;;;;;;;18.40;14.20;;;-0.80;99.30;;;;;;6275456;28;20458;-63
2020/12/01 04:46:36;;;;;;;18.93;13.27;;;-0.90;99.20;;;;;;6275327;28;20467;-63
2020/12/01 04:49:42;;;;;;;18.13;14.80;;;-0.90;99.30;;;;;;6275452;28;20462;-63
2020/12/01 04:53:11;;;;;;;18.67;12.30;;;-0.90;99.40;;;;;;6275283;28;20474;-63
2020/12/01 04:56:46;;;;;;;24.77;14.27;;;-0.90;99.40;;;;;;6275014;28;20478;-63
2020/12/01 05:00:13;;;;;;;27.80;15.80;;;-1.00;99.40;;;;;;6274981;28;20958;-63
2020/12/01 05:03:29;;;;;;;20.50;14.87;;;-1.00;99.60;;;;;;6274867;28;20470;-63
2020/12/01 05:06:56;;;;;;;19.90;13.80;;;-1.00;99.70;;;;;;6274810;28;20478;-63
2020/12/01 05:10:02;;;;;;;23.90;13.70;;;-1.00;99.60;;;;;;6274733;28;20478;-63
2020/12/01 05:13:17;;;;;;;26.57;14.57;;;-1.00;99.60;;;;;;6266017;28;20836;-65
2020/12/01 05:16:34;;;;;;;21.93;13.13;;;-1.00;99.50;;;;;;6274872;28;20459;-63
2020/12/01 05:19:44;;;;;;;21.77;13.63;;;-1.00;99.40;;;;;;6274532;28;20475;-63
2020/12/01 05:22:52;;;;;;;20.07;14.30;;;-1.10;99.50;;;;;;6274730;28;20474;-63
2020/12/01 05:25:59;;;;;;;19.53;14.00;;;-1.10;99.60;;;;;;6275103;28;20474;-63
2020/12/01 05:29:01;;;;;;;16.17;12.30;;;-1.10;99.60;;;;;;6278323;28;20489;-63
2020/12/01 05:32:03;;;;;;;23.50;13.73;;;-1.10;99.50;;;;;;6279577;28;20802;-63
2020/12/01 05:35:17;;;;;;;16.93;13.63;;;-1.10;99.50;;;;;;6279642;28;20462;-63
2020/12/01 05:38:21;;;;;;;15.20;13.03;;;-1.20;99.60;;;;;;6279753;28;20961;-63
2020/12/01 05:41:27;;;;;;;21.30;14.57;;;-1.20;99.70;;;;;;6279416;28;20466;-63
2020/12/01 05:44:31;;;;;;;21.57;13.17;;;-1.10;99.90;;;;;;6279536;28;20463;-63
2020/12/01 05:47:40;;;;;;;21.37;15.00;;;-1.10;99.70;;;;;;6279900;28;20462;-63
2020/12/01 05:50:53;;;;;;;27.30;16.50;;;-1.20;99.80;;;;;;6279169;28;20466;-63
2020/12/01 05:53:59;;;;;;;25.07;17.60;;;-1.20;99.90;;;;;;6279006;28;20539;-63
2020/12/01 05:57:02;;;;;;;21.93;14.70;;;-1.40;99.90;;;;;;6278731;28;20487;-63
2020/12/01 06:00:13;;;;;;;19.40;14.47;;;-1.40;99.90;;;;;;6279078;28;20466;-63
2020/12/01 06:03:28;;;;;;;22.57;16.43;;;-1.40;99.90;;;;;;6278762;28;20497;-63
2020/12/01 06:06:53;;;;;;;23.80;15.40;;;-1.40;99.90;;;;;;6278744;28;20467;-63
2020/12/01 06:10:16;;;;;;;22.97;16.70;;;-1.40;99.90;;;;;;6278623;28;20478;-63
2020/12/01 06:13:33;;;;;;;24.43;15.57;;;-1.30;99.90;;;;;;6273871;28;20945;-63
2020/12/01 06:16:42;;;;;;;20.20;15.00;;;-1.40;99.90;;;;;;6278547;28;20470;-63
2020/12/01 06:19:52;;;;;;;22.60;15.30;;;-1.30;99.90;;;;;;6278779;28;20457;-63
2020/12/01 06:23:21;;;;;;;26.80;15.70;;;-1.30;99.90;;;;;;6278651;28;20474;-63
2020/12/01 06:27:06;;;;;;;21.93;14.83;;;-1.30;99.90;;;;;;6278436;28;20481;-63
2020/12/01 06:30:45;;;;;;;21.40;14.93;;;-1.20;99.90;;;;;;6267826;28;20828;-63
2020/12/01 06:34:26;;;;;;;18.70;14.30;;;-1.20;99.90;;;;;;6277854;28;20985;-63
2020/12/01 06:37:34;;;;;;;19.37;15.47;;;-1.20;99.90;;;;;;6277984;28;20465;-63
2020/12/01 06:40:43;;;;;;;23.87;17.00;;;-1.10;99.90;;;;;;6277083;28;20974;-63
2020/12/01 06:43:48;;;;;;;24.37;16.73;;;-1.10;99.90;;;;;;6277786;28;20462;-63
2020/12/01 06:46:53;;;;;;;23.63;16.13;;;-1.10;99.90;;;;;;6277704;28;20816;-63
2020/12/01 06:49:58;;;;;;;21.33;15.80;;;-1.10;99.90;;;;;;6277634;28;20466;-65
2020/12/01 06:53:03;;;;;;;21.77;15.20;;;-1.10;99.90;;;;;;6277523;28;20993;-64
2020/12/01 06:56:17;;;;;;;23.67;14.80;;;-1.10;99.90;;;;;;6277468;28;21019;-64
2020/12/01 06:59:19;;;;;;;19.67;14.40;;;-1.00;99.90;;;;;;6277731;28;20466;-64
2020/12/01 07:02:27;;;;;;;21.70;14.57;;;-1.00;99.90;;;;;;6277147;28;20966;-64
2020/12/01 07:05:32;;;;;;;20.90;14.03;;;-1.00;99.90;;;;;;6277452;28;20612;-64
2020/12/01 07:08:34;;;;;;;19.70;13.73;;;-0.90;99.70;;;;;;6277396;28;20481;-64
2020/12/01 07:11:57;;;;;;;20.77;14.33;;;-0.90;99.70;;;;;;6276763;28;20498;-65
2020/12/01 07:15:04;;;;;;;21.30;15.53;;;-0.80;99.80;;;;;;6277477;28;20486;-65
2020/12/01 07:18:16;;;;;;;21.10;15.47;;;-0.80;99.70;;;;;;6277295;28;20816;-64
2020/12/01 07:21:30;;;;;;;23.87;16.10;;;-0.70;99.50;;;;;;6276883;28;20489;-64
2020/12/01 07:24:40;;;;;;;27.03;17.83;;;-0.60;99.50;;;;;;6277458;28;20566;-64
2020/12/01 07:27:58;;;;;;;28.00;18.03;;;-0.60;99.40;;;;;;6276975;28;20481;-64
2020/12/01 07:31:03;;;;;;;22.93;15.80;;;-0.60;99.50;;;;;;6276862;28;20771;-63
2020/12/01 07:34:22;;;;;;;23.73;16.00;;;-0.50;99.40;;;;;;6276632;28;20789;-63
2020/12/01 07:37:41;;;;;;;24.20;16.87;;;-0.50;99.40;;;;;;6276988;28;20458;-64
2020/12/01 07:40:48;;;;;;;19.50;15.83;;;-0.40;99.50;;;;;;6276570;28;20463;-64
2020/12/01 07:44:03;;;;;;;20.93;16.80;;;-0.30;99.50;;;;;;6276806;28;20462;-64
2020/12/01 07:47:12;;;;;;;22.70;17.87;;;-0.20;99.60;;;;;;6276851;28;20466;-63
2020/12/01 07:50:20;;;;;;;27.80;17.63;;;-0.10;99.40;;;;;;6276388;28;20972;-64
2020/12/01 07:53:22;;;;;;;26.33;16.90;;;0.00;99.30;;;;;;6276586;28;20480;-63
2020/12/01 07:56:27;;;;;;;27.73;18.33;;;0.10;99.30;;;;;;6275868;28;20481;-63
2020/12/01 07:59:41;;;;;;;24.80;18.87;;;0.20;99.20;;;;;;6276084;28;20470;-63
2020/12/01 08:02:43;;;;;;;26.47;18.10;;;0.30;99.00;;;;;;6275987;28;20471;-63
2020/12/01 08:05:46;;;;;;;24.77;17.13;;;0.40;98.90;;;;;;6275575;28;20958;-64
2020/12/01 08:08:48;;;;;;;22.50;15.70;;;0.50;98.90;;;;;;6275887;28;20485;-64
2020/12/01 08:11:54;;;;;;;22.63;14.90;;;0.50;98.40;;;;;;6275639;28;20478;-64
2020/12/01 08:14:57;;;;;;;20.80;15.40;;;0.70;98.40;;;;;;6275816;28;20483;-63
2020/12/01 08:18:02;;;;;;;23.87;15.77;;;0.70;98.10;;;;;;6275689;28;20470;-63
2020/12/01 08:21:05;;;;;;;20.33;14.93;;;0.80;98.00;;;;;;6275858;28;20470;-63
2020/12/01 08:24:17;;;;;;;21.40;14.47;;;1.00;98.10;;;;;;6266822;28;20478;-63
2020/12/01 08:27:23;;;;;;;15.20;13.27;;;1.10;97.90;;;;;;6275469;28;20552;-64
2020/12/01 08:30:34;;;;;;;22.93;14.37;;;1.20;97.70;;;;;;6275895;28;20480;-64
2020/12/01 08:33:59;;;;;;;22.60;14.67;;;1.40;97.60;;;;;;6287199;28;20814;-64
2020/12/01 08:37:09;;;;;;;19.60;14.07;;;1.50;97.50;;;;;;6283976;28;20962;-64
2020/12/01 08:40:19;;;;;;;19.30;13.63;;;1.70;97.30;;;;;;6284905;28;20444;-64
2020/12/01 08:43:27;;;;;;;19.50;13.80;;;1.80;97.00;;;;;;6285684;28;20458;-64
2020/12/01 08:46:32;;;;;;;17.10;12.90;;;1.90;96.90;;;;;;6286956;28;20477;-64
2020/12/01 08:49:43;;;;;;;15.67;13.50;;;2.00;96.50;;;;;;6284502;28;20798;-64
2020/12/01 08:52:46;;;;;;;20.47;15.30;;;2.00;96.50;;;;;;6284504;28;20477;-64
2020/12/01 08:55:51;;;;;;;22.93;13.33;;;2.00;96.50;;;;;;6286548;28;20473;-67
2020/12/01 08:58:54;;;;;;;21.13;14.20;;;2.10;96.50;;;;;;6286996;28;20465;-64
2020/12/01 09:02:02;;;;;;;23.00;15.53;;;2.30;96.50;;;;;;6278071;28;20914;-65
2020/12/01 09:05:05;;;;;;;17.07;14.10;;;2.40;96.10;;;;;;6286104;28;20457;-65
2020/12/01 09:08:35;;;;;;;16.77;13.83;;;2.40;96.10;;;;;;6286487;28;20472;-65
2020/12/01 09:11:53;;;;;;;25.17;13.70;;;2.40;95.80;;;;;;6285796;28;21011;-65
2020/12/01 09:18:35;;;;;;;22.90;17.10;;;2.40;96.00;;;;;;6274086;28;20466;-64
2020/12/01 09:21:55;;;;;;;22.27;16.93;;;2.30;96.00;;;;;;6274141;28;20490;-69
2020/12/01 09:25:07;;;;;;;23.93;16.17;;;2.20;96.70;;;;;;6287636;28;20470;-69
2020/12/01 09:28:13;;;;;;;23.93;18.10;;;2.20;96.60;;;;;;6281233;28;20451;-65
2020/12/01 09:31:17;;;;;;;29.53;17.87;;;2.30;96.70;;;;;;6296194;28;20462;-69
2020/12/01 09:34:20;;;;;;;25.23;18.30;;;2.40;96.40;;;;;;6298678;28;20456;-66
2020/12/01 09:37:22;;;;;;;23.93;18.63;;;2.60;95.90;;;;;;6299259;28;20520;-67
2020/12/01 09:40:26;;;;;;;25.07;19.10;;;2.70;96.30;;;;;;6299192;28;20542;-68
2020/12/01 09:43:30;;;;;;;29.07;19.20;;;2.90;95.80;;;;;;6298726;28;20547;-65
2020/12/01 09:46:38;;;;;;;22.80;17.30;;;3.20;95.40;;;;;;6287212;28;20492;-66
2020/12/01 09:49:41;;;;;;;25.23;17.67;;;3.40;95.10;;;;;;6287372;28;20469;-68
2020/12/01 09:52:58;;;;;;;21.70;17.60;;;3.60;94.80;;;;;;6273814;28;20466;-64
2020/12/01 09:56:09;;;;;;;22.33;17.73;;;3.70;94.30;;;;;;6286963;28;20488;-63
2020/12/01 10:03:10;;;;;;;26.50;17.70;;;3.70;94.30;;;;;;6295022;28;20572;-69
2020/12/01 10:09:48;;;;;;;27.00;17.20;;;3.60;94.40;;;;;;6260958;28;20474;-64
2020/12/01 10:13:02;;;;;;;26.90;18.10;;;3.60;94.90;;;;;;6271100;28;20482;-67
2020/12/01 10:36:30;;;;;;;20.17;15.43;;;3.90;94.40;;;;;;6275721;28;20489;-66
2020/12/01 10:39:33;;;;;;;22.30;15.37;;;4.00;94.30;;;;;;6275484;28;20816;-69
2020/12/01 10:42:37;;;;;;;27.17;17.70;;;4.10;94.40;;;;;;6275558;28;20529;-69
2020/12/01 10:45:39;;;;;;;19.47;14.40;;;4.20;94.10;;;;;;6280434;28;20472;-66
2020/12/01 10:48:54;;;;;;;18.60;14.83;;;4.30;94.10;;;;;;6287837;28;20552;-64
2020/12/01 10:51:56;;;;;;;21.30;15.50;;;4.20;93.90;;;;;;6285778;28;20559;-64
2020/12/01 10:54:59;;;;;;;17.53;13.97;;;4.40;93.90;;;;;;6283797;28;20480;-63
2020/12/01 10:58:02;;;;;;;20.37;13.80;;;4.50;93.80;;;;;;6287257;28;20461;-63
2020/12/01 11:01:04;;;;;;;16.37;13.20;;;4.80;93.50;;;;;;6284538;28;20477;-64
2020/12/01 11:04:07;;;;;;;18.10;13.40;;;6.20;93.10;;;;;;6274545;28;20474;-63
2020/12/01 11:07:09;;;;;;;19.70;12.50;;;9.90;84.50;;;;;;6275247;28;20454;-63
2020/12/01 11:10:13;;;;;;;19.13;14.10;;;12.50;67.50;;;;;;6275040;28;20883;-64
2020/12/01 11:13:15;;;;;;;16.03;14.37;;;15.20;53.30;;;;;;6274967;28;20463;-63
2020/12/01 11:16:17;;;;;;;17.40;14.80;;;14.50;49.80;;;;;;6274732;28;20985;-62
2020/12/01 11:19:19;;;;;;;18.47;14.20;;;12.20;52.30;;;;;;6284422;28;20450;-69
2020/12/01 11:22:22;;;;;;;16.43;14.47;;;10.80;57.00;;;;;;6283226;28;20945;-68
2020/12/01 11:25:28;;;;;;;16.30;13.70;;;11.40;57.40;;;;;;6289703;28;20457;-67
2020/12/01 11:28:30;;;;;;;15.87;14.27;;;14.30;51.70;;;;;;6285788;28;20480;-65
2020/12/01 11:31:32;;;;;;;19.50;14.53;;;17.20;46.30;;;;;;6287790;28;20469;-65
2020/12/01 11:34:35;;;;;;;15.10;13.60;;;19.60;41.40;;;;;;6276327;28;20458;-65
2020/12/01 11:37:38;;;;;;;14.37;13.07;;;21.70;36.70;;;;;;6287089;28;20953;-65
2020/12/01 11:40:41;;;;;;;16.03;14.53;;;23.80;32.90;;;;;;6280208;28;20687;-65
2020/12/01 11:43:43;;;;;;;16.13;14.63;;;24.40;28.90;;;;;;6286585;28;20233;-65
2020/12/01 11:46:46;;;;;;;17.40;15.57;;;24.90;28.60;;;;;;6283407;28;20231;-65
2020/12/01 11:49:48;;;;;;;16.23;14.73;;;26.00;28.00;;;;;;6282180;28;20220;-66
2020/12/01 11:52:51;;;;;;;14.97;13.47;;;26.60;26.00;;;;;;6284190;28;20243;-65
2020/12/01 11:55:59;;;;;;;15.47;14.17;;;26.80;25.30;;;;;;6276759;28;20261;-65
2020/12/01 11:59:01;;;;;;;14.87;13.33;;;26.20;25.70;;;;;;6288021;28;20234;-65
2020/12/01 12:02:04;;;;;;;14.83;13.43;;;26.00;25.20;;;;;;6286911;28;20668;-65
2020/12/01 12:05:06;;;;;;;14.63;13.33;;;26.70;25.20;;;;;;6287620;28;20211;-65
2020/12/01 12:08:08;;;;;;;14.23;12.93;;;27.40;23.90;;;;;;6277996;28;20695;-66
2020/12/01 12:11:12;;;;;;;13.53;12.40;;;27.20;23.80;;;;;;6275316;28;20242;-65
2020/12/01 12:14:15;;;;;;;14.90;13.50;;;26.80;23.60;;;;;;6275422;28;20749;-65
2020/12/01 12:17:17;;;;;;;14.13;12.80;;;25.60;24.40;;;;;;6275387;28;20246;-65
2020/12/01 12:20:20;;;;;;;13.60;12.40;;;25.00;24.70;;;;;;6274840;28;20233;-65
2020/12/01 12:23:24;;;;;;;12.70;11.53;;;25.00;24.60;;;;;;6275263;28;20240;-65
2020/12/01 12:26:27;;;;;;;13.90;12.53;;;24.30;24.50;;;;;;6274812;28;20235;-65
2020/12/01 12:29:29;;;;;;;12.50;11.47;;;24.30;24.90;;;;;;6275200;28;20238;-65
2020/12/01 12:32:32;;;;;;;13.07;11.77;;;24.00;24.70;;;;;;6274511;28;20245;-65
2020/12/01 12:35:34;;;;;;;12.63;11.63;;;23.00;25.60;;;;;;6274247;28;20236;-65
2020/12/01 12:38:36;;;;;;;12.17;11.17;;;22.10;26.10;;;;;;6269650;28;20676;-65
2020/12/01 12:41:39;;;;;;;12.63;11.37;;;22.00;26.60;;;;;;6274357;28;20679;-65
2020/12/01 12:44:42;;;;;;;14.03;12.70;;;21.90;26.40;;;;;;6274383;28;20223;-65
2020/12/01 12:47:44;;;;;;;12.37;11.13;;;21.60;26.70;;;;;;6282493;28;20223;-68
2020/12/01 12:50:46;;;;;;;13.20;11.83;;;20.90;27.10;;;;;;6274547;28;20235;-68
2020/12/01 12:53:48;;;;;;;14.37;13.03;;;19.70;27.60;;;;;;6274616;28;20223;-69
2020/12/01 12:56:52;;;;;;;13.90;12.47;;;18.70;28.90;;;;;;6298402;28;20762;-72
2020/12/01 12:59:54;;;;;;;12.00;10.77;;;17.20;30.00;;;;;;6299085;28;20960;-66
2020/12/01 13:02:57;;;;;;;16.87;12.10;;;15.40;32.30;;;;;;6298868;28;20481;-68
2020/12/01 13:05:59;;;;;;;15.50;12.70;;;13.90;34.80;;;;;;6298792;28;20847;-68
2020/12/01 13:09:02;;;;;;;14.93;12.07;;;13.40;36.80;;;;;;6299170;28;20473;-69
2020/12/01 13:12:05;;;;;;;13.50;12.10;;;13.70;37.00;;;;;;6298715;28;20481;-67
2020/12/01 13:15:10;;;;;;;13.67;10.70;;;14.30;35.50;;;;;;6298580;28;20465;-67
2020/12/01 13:18:13;;;;;;;13.37;11.97;;;14.90;34.70;;;;;;6298797;28;20987;-68
2020/12/01 13:21:15;;;;;;;11.40;10.23;;;15.80;33.90;;;;;;6298716;28;20468;-67
2020/12/01 13:24:17;;;;;;;13.17;11.03;;;16.80;32.80;;;;;;6299254;28;20465;-71
2020/12/01 13:27:21;;;;;;;11.93;10.73;;;17.60;31.70;;;;;;6299050;28;20476;-68
2020/12/01 13:30:23;;;;;;;13.13;12.03;;;18.70;30.80;;;;;;6298905;28;20481;-69
2020/12/01 13:33:26;;;;;;;13.10;11.30;;;18.90;29.90;;;;;;6298335;28;20788;-70
2020/12/01 13:36:29;;;;;;;12.53;11.33;;;18.10;29.90;;;;;;6298637;28;20488;-66
2020/12/01 13:39:35;;;;;;;12.53;11.33;;;17.40;31.00;;;;;;6298759;28;20484;-68
2020/12/01 13:42:38;;;;;;;12.33;11.03;;;15.90;32.20;;;;;;6288666;28;20488;-68
2020/12/01 13:45:41;;;;;;;11.70;10.60;;;14.60;34.10;;;;;;6273766;28;20547;-69
2020/12/01 13:48:43;;;;;;;12.13;10.70;;;13.80;35.30;;;;;;6298436;28;20797;-66
2020/12/01 13:51:46;;;;;;;14.23;12.30;;;12.30;37.40;;;;;;6293733;28;20535;-65
2020/12/01 13:54:49;;;;;;;17.73;12.77;;;11.20;39.70;;;;;;6285551;28;21024;-67
2020/12/01 13:57:52;;;;;;;14.40;12.93;;;10.00;42.40;;;;;;6303079;28;20469;-70
2020/12/01 14:00:55;;;;;;;16.40;13.33;;;9.20;45.10;;;;;;6303221;28;20472;-66
2020/12/01 14:03:57;;;;;;;16.00;13.00;;;8.60;46.70;;;;;;6303172;28;20465;-69
2020/12/01 14:06:59;;;;;;;18.73;15.00;;;8.10;48.40;;;;;;6303048;28;20524;-66
2020/12/01 14:10:02;;;;;;;13.80;12.20;;;7.70;49.70;;;;;;6302891;28;20484;-66
2020/12/01 14:13:05;;;;;;;18.13;12.93;;;7.10;50.90;;;;;;6302671;28;20945;-70
2020/12/01 14:16:07;;;;;;;18.40;13.43;;;6.90;52.20;;;;;;6302866;28;20476;-69
2020/12/01 14:19:10;;;;;;;18.30;15.00;;;6.50;53.10;;;;;;6302539;28;20480;-68
2020/12/01 14:22:13;;;;;;;15.63;13.93;;;6.30;54.50;;;;;;6302793;28;20448;-69
2020/12/01 14:25:17;;;;;;;16.10;13.13;;;6.00;55.60;;;;;;6283966;28;20446;-64
2020/12/01 14:28:21;;;;;;;18.43;14.30;;;5.90;56.40;;;;;;6288068;28;20752;-63
2020/12/01 14:31:24;;;;;;;17.13;13.40;;;5.80;57.40;;;;;;6302494;28;20969;-63
2020/12/01 14:34:27;;;;;;;19.83;14.80;;;5.70;58.30;;;;;;6302405;28;20770;-67
2020/12/01 14:37:29;;;;;;;16.47;12.57;;;5.60;59.00;;;;;;6302497;28;20477;-61
2020/12/01 14:40:32;;;;;;;21.80;15.10;;;5.60;59.60;;;;;;6302231;28;20583;-66
2020/12/01 14:43:36;;;;;;;18.33;14.87;;;5.60;60.50;;;;;;6287916;28;20472;-67
2020/12/01 14:46:53;;;;;;;20.03;15.33;;;5.50;61.60;;;;;;6273092;28;20566;-65
2020/12/01 14:50:25;;;;;;;21.03;14.00;;;5.30;62.40;;;;;;6277636;28;20469;-62
2020/12/01 14:53:31;;;;;;;21.80;16.20;;;5.30;63.20;;;;;;6286092;28;20474;-64
2020/12/01 14:56:50;;;;;;;18.87;15.57;;;5.20;64.30;;;;;;6293302;28;20476;-62
2020/12/01 15:00:09;;;;;;;24.80;16.07;;;4.90;65.50;;;;;;6301268;28;20480;-62
2020/12/01 15:03:36;;;;;;;24.10;17.20;;;4.50;67.70;;;;;;6301526;28;20470;-62
2020/12/01 15:06:58;;;;;;;24.77;15.87;;;4.30;69.90;;;;;;6276858;28;20982;-64
2020/12/01 15:10:17;;;;;;;21.30;15.93;;;4.10;71.40;;;;;;6284777;28;20969;-65
2020/12/01 15:13:20;;;;;;;22.10;15.57;;;4.20;72.20;;;;;;6281712;28;20474;-65
2020/12/01 15:16:30;;;;;;;23.53;15.97;;;4.20;72.80;;;;;;6276509;28;20482;-65
2020/12/01 15:19:33;;;;;;;20.50;14.67;;;4.20;73.30;;;;;;6276940;28;20462;-62
2020/12/01 15:22:44;;;;;;;19.80;14.33;;;4.20;74.00;;;;;;6279804;28;20461;-62
2020/12/01 15:25:51;;;;;;;19.63;16.37;;;4.30;74.20;;;;;;6289868;28;20480;-65
2020/12/01 15:28:54;;;;;;;23.97;15.33;;;4.30;74.70;;;;;;6299172;28;20472;-62
2020/12/01 15:31:57;;;;;;;20.67;16.03;;;4.30;74.70;;;;;;6298702;28;20469;-62
2020/12/01 15:35:02;;;;;;;21.57;16.57;;;4.30;74.80;;;;;;6298990;28;20508;-63
2020/12/01 15:38:06;;;;;;;19.40;16.40;;;4.40;75.30;;;;;;6298594;28;20871;-62
2020/12/01 15:41:10;;;;;;;24.37;15.80;;;4.40;75.40;;;;;;6298400;28;20474;-63
2020/12/01 15:44:19;;;;;;;23.73;16.93;;;4.40;76.20;;;;;;6300147;28;20465;-63
2020/12/01 15:47:25;;;;;;;21.53;16.20;;;4.40;77.00;;;;;;6300701;28;20958;-62
2020/12/01 15:50:28;;;;;;;22.93;17.07;;;4.40;77.50;;;;;;6296386;28;20466;-61
2020/12/01 15:53:48;;;;;;;24.37;17.40;;;4.30;78.20;;;;;;6276618;28;20475;-64
2020/12/01 15:57:28;;;;;;;28.00;20.03;;;4.10;79.30;;;;;;6299348;28;20515;-63
2020/12/01 16:00:45;;;;;;;30.30;21.73;;;4.00;81.20;;;;;;6300357;28;20495;-64
2020/12/01 16:04:21;;;;;;;33.23;21.63;;;3.90;83.00;;;;;;6300141;28;20541;-64
2020/12/01 16:07:43;;;;;;;30.40;18.60;;;4.00;84.00;;;;;;6299747;28;20450;-64
2020/12/01 16:11:15;;;;;;;30.53;21.30;;;4.00;84.40;;;;;;6299693;28;20469;-67
2020/12/01 16:15:12;;;;;;;30.60;22.20;;;4.00;85.00;;;;;;6299779;28;20474;-67
2020/12/01 16:18:22;;;;;;;27.70;20.17;;;3.90;86.00;;;;;;6299973;28;20807;-63
2020/12/01 16:21:28;;;;;;;31.37;21.93;;;3.80;86.80;;;;;;6299961;28;20477;-66
2020/12/01 16:24:33;;;;;;;29.73;21.33;;;3.70;87.50;;;;;;6297995;28;20473;-67